createdAt,value
2018-09-24T00:01:27.450Z,93.30
2018-09-24T00:03:55.707Z,93.20
2018-09-24T00:06:23.976Z,93.20
2018-09-24T00:08:52.245Z,92.30
2018-09-24T00:11:20.541Z,92.90
2018-09-24T00:13:48.979Z,93.10
2018-09-24T00:16:17.430Z,92.50
2018-09-24T00:18:45.779Z,93.30
2018-09-24T00:21:14.039Z,93.30
2018-09-24T00:23:42.305Z,92.40
2018-09-24T00:26:10.632Z,90.80
2018-09-24T00:28:38.936Z,90.90
2018-09-24T00:31:07.195Z,90.70
2018-09-24T00:33:35.489Z,90.40
2018-09-24T00:36:04.333Z,90.90
2018-09-24T00:38:32.611Z,90.90
2018-09-24T00:41:00.867Z,91.30
2018-09-24T00:43:29.474Z,91.50
2018-09-24T00:45:57.718Z,91.70
2018-09-24T00:48:25.977Z,91.80
2018-09-24T00:50:54.257Z,92.30
2018-09-24T00:53:22.527Z,92.60
2018-09-24T00:55:50.819Z,92.60
2018-09-24T00:58:19.725Z,91.30
2018-09-24T01:00:48.023Z,91.70
2018-09-24T01:03:16.292Z,91.90
2018-09-24T01:05:44.850Z,92.70
2018-09-24T01:08:13.137Z,93.00
2018-09-24T01:10:41.418Z,92.90
2018-09-24T01:13:09.694Z,93.10
2018-09-24T01:15:37.955Z,92.80
2018-09-24T01:18:06.222Z,92.80
2018-09-24T01:20:34.553Z,92.90
2018-09-24T01:23:02.832Z,93.40
2018-09-24T01:25:31.139Z,93.20
2018-09-24T01:27:59.412Z,93.50
2018-09-24T01:30:27.707Z,93.20
2018-09-24T01:32:56.013Z,92.60
2018-09-24T01:35:24.300Z,92.90
2018-09-24T01:37:52.550Z,93.40
2018-09-24T01:40:20.807Z,93.10
2018-09-24T01:42:49.077Z,93.40
2018-09-24T01:45:17.369Z,93.20
2018-09-24T01:47:45.650Z,92.60
2018-09-24T01:50:14.141Z,93.10
2018-09-24T01:52:42.401Z,93.40
2018-09-24T01:55:10.688Z,93.20
2018-09-24T01:57:39.290Z,93.20
2018-09-24T02:00:08.152Z,93.10
2018-09-24T02:02:36.420Z,93.20
2018-09-24T02:05:05.090Z,93.20
2018-09-24T02:07:34.243Z,93.20
2018-09-24T02:10:36.211Z,91.70
2018-09-24T02:13:04.489Z,91.70
2018-09-24T02:15:33.799Z,92.20
2018-09-24T02:23:39.870Z,90.40
2018-09-24T02:26:20.036Z,91.90
2018-09-24T02:29:03.692Z,91.90
2018-09-24T02:31:44.729Z,92.40
2018-09-24T02:34:22.482Z,92.50
2018-09-24T02:36:59.700Z,92.80
2018-09-24T02:39:43.612Z,92.50
2018-09-24T02:42:21.504Z,92.70
2018-09-24T02:45:05.893Z,92.10
2018-09-24T02:47:38.017Z,91.90
2018-09-24T02:50:21.984Z,91.70
2018-09-24T02:52:58.936Z,92.60
2018-09-24T02:55:39.150Z,92.20
2018-09-24T02:58:25.306Z,92.40
2018-09-24T03:01:00.491Z,92.30
2018-09-24T03:03:43.481Z,93.00
2018-09-24T03:06:22.158Z,92.30
2018-09-24T03:08:56.456Z,92.20
2018-09-24T03:11:42.992Z,92.20
2018-09-24T03:14:20.394Z,92.70
2018-09-24T03:16:56.624Z,93.00
2018-09-24T03:19:33.525Z,92.80
2018-09-24T03:22:18.002Z,92.70
2018-09-24T03:24:59.724Z,92.60
2018-09-24T03:27:37.643Z,92.70
2018-09-24T03:30:10.426Z,92.60
2018-09-24T03:32:49.784Z,92.40
2018-09-24T03:35:22.855Z,92.40
2018-09-24T03:37:54.922Z,92.30
2018-09-24T03:40:28.864Z,92.00
2018-09-24T03:45:39.947Z,92.60
2018-09-24T03:48:13.957Z,92.90
2018-09-24T03:50:45.738Z,93.30
2018-09-24T03:53:18.932Z,93.00
2018-09-24T03:55:50.904Z,92.50
2018-09-24T03:58:19.643Z,93.20
2018-09-24T04:00:54.007Z,93.40
2018-09-24T04:03:24.685Z,93.40
2018-09-24T04:06:00.289Z,93.40
2018-09-24T04:08:36.013Z,93.20
2018-09-24T04:11:10.613Z,93.30
2018-09-24T04:13:45.185Z,93.10
2018-09-24T04:16:25.434Z,92.90
2018-09-24T04:19:00.962Z,92.80
2018-09-24T04:21:34.776Z,92.90
2018-09-24T04:24:08.709Z,92.80
2018-09-24T04:26:42.249Z,92.80
2018-09-24T04:29:15.788Z,92.90
2018-09-24T04:31:49.339Z,92.80
2018-09-24T04:34:22.947Z,92.80
2018-09-24T04:36:56.625Z,92.80
2018-09-24T04:39:30.232Z,92.70
2018-09-24T04:42:04.571Z,92.90
2018-09-24T04:44:38.125Z,93.00
2018-09-24T04:47:11.754Z,93.00
2018-09-24T04:49:45.966Z,92.80
2018-09-24T04:52:19.643Z,92.80
2018-09-24T04:54:53.232Z,92.80
2018-09-24T04:57:26.887Z,92.70
2018-09-24T05:00:00.431Z,92.70
2018-09-24T05:02:34.083Z,92.70
2018-09-24T05:05:07.781Z,93.00
2018-09-24T05:07:41.500Z,94.10
2018-09-24T05:10:15.945Z,94.10
2018-09-24T05:13:03.793Z,93.60
2018-09-24T05:15:37.724Z,93.60
2018-09-24T05:18:11.404Z,93.60
2018-09-24T05:20:49.935Z,93.70
2018-09-24T05:23:24.318Z,93.10
2018-09-24T05:25:58.162Z,93.20
2018-09-24T05:28:31.763Z,93.00
2018-09-24T05:31:05.337Z,92.90
2018-09-24T05:33:38.998Z,92.80
2018-09-24T05:36:13.498Z,92.70
2018-09-24T05:38:47.059Z,92.70
2018-09-24T05:41:20.733Z,92.60
2018-09-24T05:43:54.325Z,92.60
2018-09-24T05:46:27.947Z,92.50
2018-09-24T05:49:08.196Z,92.60
2018-09-24T05:51:41.973Z,93.00
2018-09-24T05:54:16.710Z,94.90
2018-09-24T05:56:50.310Z,94.70
2018-09-24T05:59:23.994Z,94.80
2018-09-24T06:01:58.119Z,94.30
2018-09-24T06:04:32.406Z,93.90
2018-09-24T06:07:06.086Z,93.60
2018-09-24T06:09:39.875Z,93.20
2018-09-24T06:12:13.527Z,93.00
2018-09-24T06:14:48.167Z,93.20
2018-09-24T06:17:21.777Z,93.10
2018-09-24T06:19:55.337Z,93.20
2018-09-24T06:22:28.907Z,93.50
2018-09-24T06:25:05.986Z,93.90
2018-09-24T06:27:39.599Z,93.60
2018-09-24T06:30:14.737Z,92.70
2018-09-24T06:32:48.412Z,92.90
2018-09-24T06:35:22.138Z,92.80
2018-09-24T06:37:55.793Z,93.20
2018-09-24T06:40:29.492Z,92.80
2018-09-24T06:43:03.098Z,92.20
2018-09-24T06:45:36.794Z,92.30
2018-09-24T06:48:10.503Z,92.50
2018-09-24T06:50:44.085Z,91.90
2018-09-24T06:53:17.752Z,91.70
2018-09-24T06:55:51.433Z,91.70
2018-09-24T06:58:25.129Z,91.10
2018-09-24T07:00:58.762Z,90.80
2018-09-24T07:03:32.354Z,91.90
2018-09-24T07:06:06.051Z,90.60
2018-09-24T07:08:39.791Z,91.10
2018-09-24T07:11:13.430Z,91.50
2018-09-24T07:13:47.075Z,91.70
2018-09-24T07:16:20.723Z,92.00
2018-09-24T07:18:54.313Z,91.30
2018-09-24T07:21:28.092Z,92.00
2018-09-24T07:24:02.116Z,91.40
2018-09-24T07:26:35.683Z,91.90
2018-09-24T07:29:09.381Z,92.10
2018-09-24T07:31:43.040Z,92.20
2018-09-24T07:34:16.600Z,92.40
2018-09-24T07:36:50.846Z,92.10
2018-09-24T07:39:24.506Z,92.30
2018-09-24T07:41:58.134Z,92.10
2018-09-24T07:44:31.785Z,92.30
2018-09-24T07:47:06.039Z,92.50
2018-09-24T07:49:39.726Z,92.50
2018-09-24T07:52:13.384Z,92.50
2018-09-24T07:54:47.125Z,92.30
2018-09-24T07:57:20.797Z,92.00
2018-09-24T07:59:55.002Z,91.80
2018-09-24T08:02:29.133Z,92.00
2018-09-24T08:05:03.532Z,92.50
2018-09-24T08:07:38.835Z,92.40
2018-09-24T08:10:12.509Z,92.50
2018-09-24T08:12:46.127Z,91.70
2018-09-24T08:15:22.298Z,92.10
2018-09-24T08:17:57.252Z,91.40
2018-09-24T08:20:31.671Z,91.40
2018-09-24T08:23:05.225Z,91.90
2018-09-24T08:25:41.985Z,91.40
2018-09-24T08:28:15.688Z,91.50
2018-09-24T08:30:49.207Z,91.40
2018-09-24T08:33:23.777Z,91.60
2018-09-24T08:35:57.251Z,91.00
2018-09-24T08:38:30.980Z,90.00
2018-09-24T08:41:04.708Z,89.00
2018-09-24T08:43:42.624Z,89.80
2018-09-24T08:46:19.597Z,86.10
2018-09-24T08:48:54.928Z,89.20
2018-09-24T08:51:30.807Z,89.30
2018-09-24T08:54:06.180Z,88.40
2018-09-24T08:56:41.684Z,87.50
2018-09-24T08:59:17.286Z,87.50
2018-09-24T09:01:52.798Z,85.90
2018-09-24T09:04:28.919Z,87.20
2018-09-24T09:07:04.934Z,85.10
2018-09-24T09:09:40.835Z,83.50
2018-09-24T09:12:17.894Z,80.70
2018-09-24T09:14:54.227Z,80.80
2018-09-24T09:17:32.650Z,81.60
2018-09-24T09:20:09.581Z,81.00
2018-09-24T09:22:44.821Z,77.10
2018-09-24T09:25:20.985Z,77.70
2018-09-24T09:27:57.135Z,80.80
2018-09-24T09:30:32.832Z,79.10
2018-09-24T09:33:13.333Z,77.80
2018-09-24T09:35:49.268Z,75.40
2018-09-24T09:38:24.673Z,75.20
2018-09-24T09:40:59.989Z,77.50
2018-09-24T09:43:35.317Z,76.80
2018-09-24T09:46:10.770Z,77.10
2018-09-24T09:48:45.984Z,78.20
2018-09-24T09:51:23.403Z,77.70
2018-09-24T09:53:58.868Z,77.10
2018-09-24T09:56:34.079Z,77.80
2018-09-24T09:59:11.178Z,77.70
2018-09-24T10:01:47.161Z,78.90
2018-09-24T13:48:17.357Z,78.60
2018-09-24T13:50:55.152Z,65.70
2018-09-24T13:53:31.221Z,65.70
2018-09-24T13:56:07.800Z,66.00
2018-09-24T13:58:46.561Z,67.10
2018-09-24T14:01:23.048Z,66.40
2018-09-24T14:04:01.518Z,66.10
2018-09-24T14:06:38.056Z,66.60
2018-09-24T14:09:13.641Z,65.40
2018-09-24T14:11:49.930Z,64.60
2018-09-24T14:14:27.645Z,65.20
2018-09-24T14:17:07.176Z,64.10
2018-09-24T14:19:51.326Z,64.90
2018-09-24T14:22:36.514Z,65.70
2018-09-24T14:25:13.749Z,65.90
2018-09-24T14:27:58.903Z,63.70
2018-09-24T14:30:53.130Z,65.60
2018-09-24T14:39:40.181Z,66.30
2018-09-24T14:42:24.346Z,66.20
2018-09-24T14:45:02.062Z,64.30
2018-09-24T14:48:01.860Z,64.00
2018-09-24T14:51:14.688Z,65.10
2018-09-24T14:57:05.789Z,66.20
2018-09-24T14:59:47.882Z,67.20
2018-09-24T15:02:37.506Z,68.80
2018-09-24T15:05:16.782Z,68.50
2018-09-24T15:08:02.024Z,69.90
2018-09-24T15:10:53.533Z,68.60
2018-09-24T15:14:05.233Z,69.40
2018-09-24T15:19:59.481Z,77.00
2018-09-24T15:22:44.262Z,79.20
2018-09-24T15:25:25.409Z,77.70
2018-09-24T15:28:22.577Z,79.20
2018-09-24T15:31:08.508Z,79.60
2018-09-24T15:33:46.630Z,79.00
2018-09-24T15:36:45.995Z,77.80
2018-09-24T15:39:42.787Z,77.00
2018-09-24T15:42:31.025Z,77.80
2018-09-24T15:45:18.420Z,77.20
2018-09-24T15:51:27.652Z,74.80
2018-09-24T15:54:21.995Z,73.00
2018-09-24T15:57:21.099Z,72.60
2018-09-24T16:03:48.070Z,71.20
2018-09-24T16:09:36.481Z,73.00
2018-09-24T16:18:26.139Z,70.60
2018-09-24T16:21:03.668Z,70.60
2018-09-24T16:23:41.105Z,71.10
2018-09-24T16:26:23.418Z,70.60
2018-09-24T16:29:03.723Z,71.00
2018-09-24T16:31:38.667Z,70.40
2018-09-24T16:34:14.504Z,70.50
2018-09-24T16:36:51.327Z,70.80
2018-09-24T16:39:28.199Z,71.40
2018-09-24T16:42:02.990Z,72.10
2018-09-24T16:44:41.270Z,71.10
2018-09-24T16:47:21.580Z,71.60
2018-09-24T16:49:58.276Z,72.20
2018-09-24T16:52:35.265Z,72.10
2018-09-24T16:55:14.858Z,73.60
2018-09-24T16:57:51.669Z,71.40
2018-09-24T17:00:34.220Z,71.20
2018-09-24T17:03:15.513Z,71.00
2018-09-24T17:05:50.215Z,71.20
2018-09-24T17:08:27.020Z,71.80
2018-09-24T17:11:08.097Z,72.30
2018-09-24T17:13:45.394Z,71.90
2018-09-24T17:16:25.499Z,73.10
2018-09-24T17:19:15.849Z,73.10
2018-09-24T17:25:27.362Z,73.90
2018-09-24T17:28:19.999Z,73.60
2018-09-24T17:33:52.228Z,74.30
2018-09-24T17:39:29.246Z,75.20
2018-09-24T17:42:08.580Z,75.10
2018-09-24T17:44:44.773Z,75.90
2018-09-24T18:06:43.368Z,78.20
2018-09-24T18:09:16.987Z,78.50
2018-09-24T18:11:57.251Z,79.20
2018-09-24T18:14:30.791Z,79.20
2018-09-24T18:17:05.017Z,78.70
2018-09-24T18:19:38.651Z,78.60
2018-09-24T18:22:13.289Z,79.20
2018-09-24T18:24:46.969Z,78.30
2018-09-24T18:27:20.533Z,78.10
2018-09-24T18:29:54.204Z,78.10
2018-09-24T18:55:53.834Z,77.30
2018-09-24T19:01:30.934Z,78.10
2018-09-24T19:04:04.585Z,78.40
2018-09-24T19:16:09.988Z,78.90
2018-09-24T19:18:43.817Z,78.60
2018-09-24T19:21:17.506Z,79.00
2018-09-24T19:23:51.150Z,78.60
2018-09-24T19:26:24.839Z,78.70
2018-09-24T19:28:58.555Z,78.80
2018-09-24T19:31:33.284Z,78.60
2018-09-24T19:34:08.806Z,78.60
2018-09-24T19:36:42.518Z,78.60
2018-09-24T19:39:16.107Z,78.60
2018-09-24T19:41:49.869Z,78.70
2018-09-24T19:44:23.567Z,79.00
2018-09-24T19:46:57.723Z,78.90
2018-09-24T19:49:41.973Z,78.90
2018-09-24T19:52:15.564Z,79.10
2018-09-24T19:54:49.260Z,79.20
2018-09-24T19:57:22.999Z,79.10
2018-09-24T19:59:56.644Z,79.10
2018-09-24T20:02:30.693Z,79.20
2018-09-24T20:05:08.663Z,79.40
2018-09-24T20:07:42.287Z,79.40
2018-09-24T20:10:16.936Z,79.40
2018-09-24T20:12:50.579Z,79.30
2018-09-24T20:15:24.169Z,79.90
2018-09-24T20:18:01.519Z,79.40
2018-09-24T20:20:35.138Z,79.30
2018-09-24T20:23:08.797Z,79.50
2018-09-24T20:25:43.214Z,81.60
2018-09-24T20:28:16.968Z,83.20
2018-09-24T20:30:50.656Z,83.60
2018-09-24T20:33:24.302Z,83.50
2018-09-24T20:35:57.925Z,82.90
2018-09-24T20:38:31.628Z,83.30
2018-09-24T20:41:05.281Z,83.40
2018-09-24T20:43:40.163Z,83.10
2018-09-24T20:46:15.337Z,82.90
2018-09-24T20:48:49.036Z,82.70
2018-09-24T20:51:23.327Z,82.60
2018-09-24T20:53:57.036Z,82.90
2018-09-24T20:56:30.732Z,83.20
2018-09-24T20:59:08.218Z,83.80
2018-09-24T21:04:51.980Z,82.80
2018-09-24T21:07:37.558Z,82.50
2018-09-24T21:10:35.718Z,82.50
2018-09-24T21:13:25.998Z,82.50
2018-09-24T21:16:21.663Z,82.10
2018-09-24T21:19:07.980Z,81.90
2018-09-24T21:21:51.459Z,81.80
2018-09-24T21:24:44.568Z,81.60
2018-09-24T21:27:32.181Z,81.60
2018-09-24T21:30:06.897Z,81.60
2018-09-24T21:32:41.126Z,81.60
2018-09-24T21:35:14.727Z,81.90
2018-09-24T21:37:48.789Z,82.00
2018-09-24T21:40:22.446Z,81.60
2018-09-24T21:42:56.406Z,81.90
2018-09-24T21:45:30.161Z,81.90
2018-09-24T21:48:03.826Z,81.70
2018-09-24T21:50:37.538Z,81.90
2018-09-24T21:53:11.274Z,82.30
2018-09-24T21:55:44.840Z,81.90
2018-09-24T21:58:18.438Z,82.50
2018-09-24T22:00:52.288Z,81.80
2018-09-24T22:03:26.417Z,81.80
2018-09-24T22:06:00.142Z,81.90
2018-09-24T22:08:34.076Z,81.90
2018-09-24T22:11:07.634Z,81.90
2018-09-24T22:13:41.182Z,81.90
2018-09-24T22:16:14.813Z,82.20
2018-09-24T22:18:48.801Z,82.20
2018-09-24T22:21:22.430Z,82.20
2018-09-24T22:23:56.131Z,82.10
2018-09-24T22:26:29.785Z,82.10
2018-09-24T22:29:03.380Z,82.20
2018-09-24T22:31:37.102Z,84.60
2018-09-24T22:34:11.262Z,84.00
2018-09-24T22:36:45.520Z,83.30
2018-09-24T22:39:19.152Z,83.40
2018-09-24T22:41:52.689Z,85.30
2018-09-24T22:44:26.320Z,84.60
2018-09-24T22:46:59.790Z,84.10
2018-09-24T22:49:33.387Z,83.70
2018-09-24T22:52:07.102Z,85.40
2018-09-24T22:54:41.264Z,86.50
2018-09-24T22:57:14.815Z,85.60
2018-09-24T22:59:49.710Z,85.00
2018-09-24T23:02:23.404Z,84.70
2018-09-24T23:04:57.108Z,84.30
2018-09-24T23:07:30.739Z,84.40
2018-09-24T23:10:04.400Z,84.00
2018-09-24T23:12:38.163Z,83.90
2018-09-24T23:15:11.819Z,84.00
2018-09-24T23:17:45.485Z,84.10
2018-09-24T23:20:19.094Z,83.90
2018-09-24T23:22:52.709Z,83.90
2018-09-24T23:25:26.402Z,84.00
2018-09-24T23:28:00.074Z,83.80
2018-09-24T23:30:33.738Z,83.90
2018-09-24T23:33:07.366Z,86.70
2018-09-24T23:35:41.327Z,88.90
2018-09-24T23:38:14.925Z,88.40
2018-09-24T23:40:48.586Z,87.30
2018-09-24T23:43:22.273Z,86.60
2018-09-24T23:45:56.198Z,86.10
2018-09-24T23:48:29.799Z,85.60
2018-09-24T23:51:04.276Z,85.10
2018-09-24T23:53:37.984Z,85.20
2018-09-24T23:56:12.703Z,84.90
2018-09-24T23:58:46.426Z,84.70
